2IN0 weather

Skip's Place Airport
Ossian, Indiana, United States

Public forecast

Using degrees Fahrenheit for public forecast. Weather courtesy of forecast.io.

METAR (pilot weather report)

Closest report is Fort Wayne International Airport, 8.6 nm (15.9 km) N. Retrieved 2019/04/22 21:54 UTC (39 minutes ago):

KFWA 222154Z 18014KT 10SM BKN160 BKN240 23/10 A3005 RMK AO2 SLP175 T02280100

TAF (pilot weather forecast)

Closest forecast is Fort Wayne International Airport, 8.6 nm (15.9 km) N. Retrieved 2019/04/22 18:36 UTC (4 hours ago):

TAF KFWA 221734Z 2218/2318 18011G21KT P6SM SCT150 FM230000 17010KT P6SM SCT250 FM231100 22012KT P6SM BKN030 FM231500 27013G24KT P6SM VCSH BKN022